Archer, Wyoming
Current Conditions -  °F | °C
As of 2:53 AM on Tuesday 27 Jan 2015 (Local Time) from KCYS Reporting Station
Clear Clear  
Wind Chill: 41°   Ceiling: Unl
Heat Index: 46°   Visibility: 10mi
Dew Point: 19°   Wind: 12mph
Humidity: 34%   Direction: 280°W
Pressure: 30.17"   Gusts: NA
Location:  41.4091°N, 104.861°W
Report Text: KCYS 270953Z AUTO 28010KT 10SM CLR 08/M07 A3017 RMK AO2 SLP161 T00781072
Loading
Personal Weather Stations






























Interactive Weather Map New forecast layout! Learn more

10-Day Weather Forecast

Advertisements
Track Severe Weather on mobile